createdAt,value
2022-12-03T00:00:12.853Z,99154.78
2022-12-03T00:03:00.944Z,99154.78
2022-12-03T00:05:29.566Z,99151.28
2022-12-03T00:08:03.605Z,99155.66
2022-12-03T00:10:34.006Z,99159.09
2022-12-03T00:13:00.902Z,99159.09
2022-12-03T00:15:28.131Z,99147.84
2022-12-03T00:17:55.046Z,99153.94
2022-12-03T00:20:25.248Z,99144.38
2022-12-03T00:22:52.885Z,99150.47
2022-12-03T00:25:21.001Z,99148.72
2022-12-03T00:27:48.868Z,99146.13
2022-12-03T00:30:21.529Z,99148.72
2022-12-03T00:32:50.727Z,99140.06
2022-12-03T00:35:18.525Z,99138.31
2022-12-03T00:37:48.492Z,99141.81
2022-12-03T00:40:15.834Z,99128.75
2022-12-03T00:42:42.782Z,99134.88
2022-12-03T00:45:10.476Z,99141.78
2022-12-03T00:47:37.288Z,99134.88
2022-12-03T00:50:06.590Z,99135.72
2022-12-03T00:52:33.907Z,99137.47
2022-12-03T00:55:01.039Z,99134.88
2022-12-03T00:57:27.882Z,99141.78
2022-12-03T00:59:55.046Z,99146.97
2022-12-03T01:02:21.925Z,99142.63
2022-12-03T01:04:49.249Z,99143.50
2022-12-03T01:07:16.650Z,99146.97
2022-12-03T01:09:44.328Z,99146.09
2022-12-03T01:12:12.095Z,99142.63
2022-12-03T01:14:39.439Z,99134.81
2022-12-03T01:17:07.038Z,99135.69
2022-12-03T01:19:35.326Z,99138.28
2022-12-03T01:22:02.623Z,99138.28
2022-12-03T01:24:30.358Z,99140.88
2022-12-03T01:26:57.698Z,99140.84
2022-12-03T01:29:25.214Z,99136.53
2022-12-03T01:32:11.256Z,99139.09
2022-12-03T01:34:44.209Z,99144.28
2022-12-03T01:37:34.605Z,99145.13
2022-12-03T01:40:05.694Z,99143.44
2022-12-03T01:42:42.556Z,99133.03
2022-12-03T01:45:23.616Z,99140.84
2022-12-03T01:47:51.406Z,99134.78
2022-12-03T01:50:32.592Z,99133.03
2022-12-03T01:53:03.751Z,99130.41
2022-12-03T01:55:34.187Z,99132.19
2022-12-03T01:58:05.118Z,99130.47
2022-12-03T02:00:33.141Z,99129.56
2022-12-03T02:03:04.006Z,99128.72
2022-12-03T02:05:35.570Z,99131.31
2022-12-03T02:08:35.758Z,99126.13
2022-12-03T02:11:25.347Z,99124.34
2022-12-03T02:14:02.765Z,99128.72
2022-12-03T02:16:34.593Z,99126.97
2022-12-03T02:19:02.251Z,99126.13
2022-12-03T02:21:51.121Z,99120.91
2022-12-03T02:24:38.971Z,99130.47
2022-12-03T02:27:09.358Z,99127.00
2022-12-03T02:29:38.273Z,99126.16
2022-12-03T02:32:06.024Z,99122.66
2022-12-03T02:34:46.054Z,99127.88
2022-12-03T02:37:27.101Z,99122.66
2022-12-03T02:40:03.251Z,99120.06
2022-12-03T02:42:35.224Z,99108.81
2022-12-03T02:45:19.310Z,99119.22
2022-12-03T02:47:56.101Z,99127.00
2022-12-03T02:50:32.238Z,99121.81
2022-12-03T02:53:05.442Z,99124.41
2022-12-03T02:55:38.834Z,99119.22
2022-12-03T02:58:07.296Z,99128.75
2022-12-03T03:00:36.267Z,99131.38
2022-12-03T03:03:08.202Z,99130.50
2022-12-03T03:05:40.837Z,99130.50
2022-12-03T03:08:10.506Z,99122.72
2022-12-03T03:10:41.455Z,99122.72
2022-12-03T03:13:18.609Z,99127.06
2022-12-03T03:15:46.514Z,99126.16
2022-12-03T03:18:15.974Z,99123.56
2022-12-03T03:20:44.928Z,99127.88
2022-12-03T03:23:20.168Z,99116.59
2022-12-03T03:25:59.110Z,99121.81
2022-12-03T03:28:28.360Z,99116.59
2022-12-03T03:30:56.053Z,99116.59
2022-12-03T03:33:23.435Z,99123.56
2022-12-03T03:35:50.635Z,99124.41
2022-12-03T03:38:22.493Z,99118.34
2022-12-03T03:40:56.458Z,99120.09
2022-12-03T03:43:25.022Z,99115.75
2022-12-03T03:45:54.526Z,99120.97
2022-12-03T03:48:23.743Z,99123.56
2022-12-03T03:51:04.000Z,99120.97
2022-12-03T03:53:33.969Z,99125.28
2022-12-03T03:56:06.582Z,99117.47
2022-12-03T03:58:34.205Z,99114.00
2022-12-03T04:01:01.985Z,99121.81
2022-12-03T04:03:29.401Z,99119.19
2022-12-03T04:05:56.694Z,99121.81
2022-12-03T04:08:23.972Z,99119.22
2022-12-03T04:11:09.879Z,99122.72
2022-12-03T04:13:39.795Z,99123.56
2022-12-03T04:16:09.277Z,99121.81
2022-12-03T04:18:46.149Z,99125.28
2022-12-03T04:21:37.666Z,99124.41
2022-12-03T04:24:09.919Z,99121.81
2022-12-03T04:26:56.979Z,99117.47
2022-12-03T04:29:35.712Z,99118.31
2022-12-03T04:32:24.074Z,99120.06
2022-12-03T04:35:10.122Z,99116.56
2022-12-03T04:37:40.299Z,99105.28
2022-12-03T04:40:29.510Z,99110.50
2022-12-03T04:42:59.401Z,99111.41
2022-12-03T04:45:27.802Z,99107.06
2022-12-03T04:47:55.675Z,99104.44
2022-12-03T04:50:23.074Z,99107.94
2022-12-03T04:52:50.738Z,99113.16
2022-12-03T04:55:18.362Z,99103.59
2022-12-03T04:57:45.748Z,99101.00
2022-12-03T05:00:14.223Z,99105.34
2022-12-03T05:02:41.150Z,99103.59
2022-12-03T05:05:09.271Z,99103.59
2022-12-03T05:07:36.675Z,99102.75
2022-12-03T05:10:06.248Z,99103.59
2022-12-03T05:12:33.174Z,99102.69
2022-12-03T05:15:00.491Z,99108.81
2022-12-03T05:17:27.667Z,99109.66
2022-12-03T05:20:13.797Z,99109.66
2022-12-03T05:22:42.558Z,99106.19
2022-12-03T05:25:13.799Z,99107.06
2022-12-03T05:27:40.697Z,99109.66
2022-12-03T05:30:08.932Z,99110.50
2022-12-03T05:32:35.805Z,99114.81
2022-12-03T05:35:03.004Z,99118.25
2022-12-03T05:37:30.321Z,99113.94
2022-12-03T05:39:57.871Z,99112.19
2022-12-03T05:42:47.052Z,99114.75
2022-12-03T05:45:18.647Z,99108.69
2022-12-03T05:47:45.436Z,99112.19
2022-12-03T05:50:12.676Z,99109.56
2022-12-03T05:52:43.515Z,99109.56
2022-12-03T05:55:11.959Z,99108.69
2022-12-03T05:57:39.515Z,99119.09
2022-12-03T06:00:18.425Z,99113.03
2022-12-03T06:02:45.874Z,99112.16
2022-12-03T06:05:15.751Z,99109.56
2022-12-03T06:07:48.752Z,99108.69
2022-12-03T06:10:29.881Z,99115.63
2022-12-03T06:12:58.484Z,99106.06
2022-12-03T06:15:26.029Z,99103.47
2022-12-03T06:17:53.630Z,99102.59
2022-12-03T06:20:21.500Z,99106.94
2022-12-03T06:22:48.765Z,99100.88
2022-12-03T06:25:17.121Z,99101.78
2022-12-03T06:27:44.601Z,99106.13
2022-12-03T06:30:13.867Z,99102.63
2022-12-03T06:32:41.104Z,99105.22
2022-12-03T06:35:08.974Z,99101.72
2022-12-03T06:37:35.891Z,99103.47
2022-12-03T06:40:03.302Z,99099.13
2022-12-03T06:45:48.077Z,99102.56
2022-12-03T06:48:15.625Z,99107.75
2022-12-03T06:50:42.514Z,99112.09
2022-12-03T06:53:09.622Z,99109.50
2022-12-03T06:55:36.419Z,99105.16
2022-12-03T06:58:04.332Z,99102.56
2022-12-03T07:00:31.450Z,99096.47
2022-12-03T07:02:58.761Z,99103.41
2022-12-03T07:05:26.309Z,99106.84
2022-12-03T07:07:55.570Z,99106.00
2022-12-03T07:10:22.852Z,99112.06
2022-12-03T07:12:49.920Z,99112.06
2022-12-03T07:15:16.861Z,99108.59
2022-12-03T07:17:43.961Z,99112.88
2022-12-03T07:20:11.540Z,99100.72
2022-12-03T07:22:38.901Z,99105.06
2022-12-03T07:25:06.750Z,99090.28
2022-12-03T07:27:34.057Z,99093.81
2022-12-03T07:30:01.376Z,99101.63
2022-12-03T07:32:28.785Z,99108.59
2022-12-03T07:34:56.604Z,99097.31
2022-12-03T07:37:23.878Z,99099.94
2022-12-03T07:39:52.631Z,99093.88
2022-12-03T07:42:19.784Z,99107.75
2022-12-03T07:44:46.620Z,99100.81
2022-12-03T07:47:13.841Z,99097.34
2022-12-03T07:49:41.232Z,99095.59
2022-12-03T07:52:11.353Z,99098.19
2022-12-03T07:54:38.334Z,99100.78
2022-12-03T07:57:05.583Z,99102.53
2022-12-03T07:59:32.492Z,99097.31
2022-12-03T08:01:59.764Z,99093.88
2022-12-03T08:04:26.696Z,99097.34
2022-12-03T08:06:54.077Z,99101.66
2022-12-03T08:09:42.374Z,99102.50
2022-12-03T08:12:20.163Z,99100.75
2022-12-03T08:14:54.802Z,99106.81
2022-12-03T08:17:23.421Z,99105.06
2022-12-03T08:19:50.313Z,99096.34
2022-12-03T08:22:31.378Z,99099.78
2022-12-03T08:25:03.981Z,99091.94
2022-12-03T08:27:37.571Z,99085.88
2022-12-03T08:30:06.834Z,99091.97
2022-12-03T08:32:44.856Z,99103.31
2022-12-03T08:35:24.192Z,99104.16
2022-12-03T08:38:14.187Z,99101.53
2022-12-03T08:40:45.745Z,99091.13
2022-12-03T08:43:30.332Z,99088.50
2022-12-03T08:46:01.737Z,99099.81
2022-12-03T08:48:47.061Z,99098.94
2022-12-03T08:51:29.534Z,99103.31
2022-12-03T08:54:27.419Z,99094.63
2022-12-03T08:56:54.794Z,99113.78
2022-12-03T08:59:32.762Z,99118.94
2022-12-03T09:02:00.226Z,99120.69
2022-12-03T09:04:53.221Z,99113.72
2022-12-03T09:07:20.283Z,99119.78
2022-12-03T09:09:47.936Z,99122.38
2022-12-03T09:12:15.095Z,99118.84
2022-12-03T09:14:42.497Z,99115.38
2022-12-03T09:17:12.424Z,99111.00
2022-12-03T09:19:46.244Z,99104.94
2022-12-03T09:22:17.421Z,99113.63
2022-12-03T09:24:44.938Z,99111.03
2022-12-03T09:28:14.893Z,99110.19
2022-12-03T09:30:42.153Z,99117.16
2022-12-03T09:33:10.566Z,99108.50
2022-12-03T09:35:37.715Z,99105.03
2022-12-03T09:38:04.731Z,99104.22
2022-12-03T09:40:31.926Z,99105.94
2022-12-03T09:42:58.817Z,99092.03
2022-12-03T09:45:26.443Z,99114.59
2022-12-03T09:47:55.212Z,99110.25
2022-12-03T09:50:28.920Z,99111.13
2022-12-03T09:53:03.320Z,99090.28
2022-12-03T09:55:31.513Z,99087.66
2022-12-03T09:57:58.910Z,99096.34
2022-12-03T10:00:32.059Z,99094.63
2022-12-03T10:03:06.858Z,99097.25
2022-12-03T10:05:36.396Z,99085.91
2022-12-03T10:08:13.268Z,99090.25
2022-12-03T10:10:42.312Z,99088.50
2022-12-03T10:13:38.879Z,99098.06
2022-12-03T10:16:23.446Z,99091.94
2022-12-03T10:19:00.473Z,99079.72
2022-12-03T10:21:41.785Z,99083.19
2022-12-03T10:24:23.416Z,99076.22
2022-12-03T10:26:54.372Z,99082.25
2022-12-03T10:29:34.826Z,99067.53
2022-12-03T10:32:09.131Z,99073.56
2022-12-03T10:34:47.693Z,99081.41
2022-12-03T10:37:21.669Z,99078.81
2022-12-03T10:40:01.213Z,99084.03
2022-12-03T10:42:47.867Z,99073.69
2022-12-03T10:45:23.049Z,99077.16
2022-12-03T10:48:20.101Z,99073.69
2022-12-03T10:51:25.100Z,99074.53
2022-12-03T10:53:52.413Z,99082.34
2022-12-03T10:56:30.330Z,99071.00
2022-12-03T10:58:59.264Z,99077.09
2022-12-03T11:01:29.224Z,99077.09
2022-12-03T11:04:09.043Z,99075.34
2022-12-03T11:07:02.080Z,99063.16
2022-12-03T11:09:34.069Z,99064.91
2022-12-03T11:12:07.858Z,99053.59
2022-12-03T11:15:38.816Z,99041.44
2022-12-03T11:18:09.356Z,99047.56
2022-12-03T11:20:47.997Z,99048.44
2022-12-03T11:23:46.529Z,99050.22
2022-12-03T11:26:27.299Z,99057.13
2022-12-03T11:28:57.466Z,99036.28
2022-12-03T11:31:58.974Z,99043.22
2022-12-03T11:34:40.831Z,99035.44
2022-12-03T11:37:13.969Z,99041.47
2022-12-03T11:39:51.105Z,99039.72
2022-12-03T11:42:47.013Z,99028.44
2022-12-03T11:46:19.931Z,99033.69
2022-12-03T11:48:50.502Z,99019.78
2022-12-03T11:51:23.423Z,99033.66
2022-12-03T11:54:31.042Z,99025.00
2022-12-03T11:56:58.825Z,99020.63
2022-12-03T11:59:27.717Z,99019.78
2022-12-03T12:01:54.767Z,99006.78
2022-12-03T12:04:43.943Z,99004.13
2022-12-03T12:07:13.332Z,99013.66
2022-12-03T12:10:07.819Z,99011.91
2022-12-03T12:12:54.310Z,99017.19
2022-12-03T12:15:48.107Z,99011.06
2022-12-03T12:18:43.338Z,99006.66
2022-12-03T12:21:51.162Z,99009.25
2022-12-03T12:24:55.525Z,99008.38
2022-12-03T12:27:31.803Z,99003.16
2022-12-03T12:30:22.433Z,99005.78
2022-12-03T12:32:54.491Z,99009.25
2022-12-03T12:35:32.997Z,99003.16
2022-12-03T12:38:14.838Z,99008.31
2022-12-03T12:40:51.802Z,99004.88
2022-12-03T12:43:31.885Z,98994.53
2022-12-03T12:49:10.544Z,99008.41
2022-12-03T12:51:47.833Z,98994.53
2022-12-03T12:54:22.887Z,98995.41
2022-12-03T12:56:50.553Z,98998.03
2022-12-03T12:59:27.361Z,98995.38
2022-12-03T13:02:46.239Z,99003.22
2022-12-03T13:05:14.373Z,99002.28
2022-12-03T13:07:44.330Z,98991.75
2022-12-03T13:10:40.773Z,98990.84
2022-12-03T13:13:46.328Z,98992.59
2022-12-03T13:16:25.710Z,98983.03
2022-12-03T13:18:59.887Z,98983.88
2022-12-03T13:21:47.265Z,98987.38
2022-12-03T13:24:52.629Z,98974.34
2022-12-03T13:27:19.846Z,98970.91
2022-12-03T13:29:59.177Z,98975.31
2022-12-03T13:32:39.340Z,98978.75
2022-12-03T13:35:36.220Z,98979.63
2022-12-03T13:38:15.660Z,98980.50
2022-12-03T13:40:43.191Z,98989.19
2022-12-03T13:43:18.708Z,98990.13
2022-12-03T13:45:48.945Z,98977.03
2022-12-03T13:48:39.780Z,98981.41
2022-12-03T13:51:33.594Z,98983.19
2022-12-03T13:54:00.882Z,98977.13
2022-12-03T13:56:33.870Z,98970.19
2022-12-03T13:59:05.309Z,98974.50
2022-12-03T14:01:32.822Z,98981.41
2022-12-03T14:04:00.250Z,98974.41
2022-12-03T14:06:27.454Z,98977.91
2022-12-03T14:08:55.505Z,98968.31
2022-12-03T14:11:41.088Z,98963.09
2022-12-03T14:14:10.353Z,98969.13
2022-12-03T14:16:38.878Z,98966.53
2022-12-03T14:19:09.794Z,98970.00
2022-12-03T14:21:37.212Z,98962.19
2022-12-03T14:24:05.306Z,98959.56
2022-12-03T14:26:32.566Z,98961.34
2022-12-03T14:29:48.824Z,98953.47
2022-12-03T14:32:17.112Z,98953.47
2022-12-03T14:34:44.659Z,98964.78
2022-12-03T14:37:12.166Z,98967.38
2022-12-03T14:39:41.281Z,98966.53
2022-12-03T14:42:18.727Z,98967.38
2022-12-03T14:44:52.765Z,98963.97
2022-12-03T14:47:29.888Z,98970.97
2022-12-03T14:49:58.033Z,98971.78
2022-12-03T14:52:25.594Z,98964.78
2022-12-03T14:54:53.372Z,98967.38
2022-12-03T14:57:21.220Z,98970.91
2022-12-03T14:59:48.977Z,98961.31
2022-12-03T15:02:22.921Z,98960.41
2022-12-03T15:04:52.773Z,98959.56
2022-12-03T15:07:19.649Z,98960.50
2022-12-03T15:09:47.048Z,98963.13
2022-12-03T15:12:16.554Z,98964.78
2022-12-03T15:14:44.146Z,98961.34
2022-12-03T15:17:11.278Z,98962.16
2022-12-03T15:19:38.544Z,98971.75
2022-12-03T15:22:05.687Z,98970.00
2022-12-03T15:24:33.156Z,98975.19
2022-12-03T15:27:00.027Z,98969.13
2022-12-03T15:29:27.354Z,98972.59
2022-12-03T15:31:55.116Z,98967.34
2022-12-03T15:34:23.249Z,98968.22
2022-12-03T15:36:51.204Z,98966.44
2022-12-03T15:39:18.653Z,98971.63
2022-12-03T15:41:45.545Z,98956.91
2022-12-03T15:44:12.598Z,98962.94
2022-12-03T15:46:39.554Z,98959.44
2022-12-03T15:49:07.307Z,98966.38
2022-12-03T15:51:34.402Z,98962.09
2022-12-03T15:54:01.947Z,98962.09
2022-12-03T15:56:29.307Z,98967.22
2022-12-03T15:58:56.844Z,98955.88
2022-12-03T16:01:25.144Z,98958.41
2022-12-03T16:04:14.871Z,98962.75
2022-12-03T16:06:44.737Z,98960.13
2022-12-03T16:09:11.922Z,98955.78
2022-12-03T16:11:41.964Z,98962.75
2022-12-03T16:14:09.052Z,98960.09
2022-12-03T16:17:21.922Z,98953.09
2022-12-03T16:19:50.231Z,98954.78
2022-12-03T16:22:18.201Z,98949.59
2022-12-03T16:24:45.873Z,98944.38
2022-12-03T16:27:13.354Z,98946.13
2022-12-03T16:29:40.932Z,98949.69
2022-12-03T16:32:08.398Z,98946.19
2022-12-03T16:34:35.927Z,98948.78
2022-12-03T16:37:04.797Z,98947.88
2022-12-03T16:39:32.305Z,98949.56
2022-12-03T16:41:59.236Z,98952.16
2022-12-03T16:44:50.511Z,98943.38
2022-12-03T16:47:17.774Z,98949.50
2022-12-03T16:49:45.542Z,98951.22
2022-12-03T16:52:12.855Z,98952.94
2022-12-03T16:54:40.331Z,98942.53
2022-12-03T16:57:10.150Z,98948.63
2022-12-03T16:59:37.452Z,98946.09
2022-12-03T17:02:04.494Z,98943.50
2022-12-03T17:04:31.835Z,98934.88
2022-12-03T17:06:59.175Z,98933.91
2022-12-03T17:09:26.519Z,98933.03
2022-12-03T17:11:53.482Z,98925.19
2022-12-03T17:14:21.476Z,98929.53
2022-12-03T17:16:48.682Z,98926.03
2022-12-03T17:19:16.472Z,98926.88
2022-12-03T17:21:43.477Z,98923.34
2022-12-03T17:24:10.612Z,98925.91
2022-12-03T17:26:37.714Z,98924.22
2022-12-03T17:29:05.500Z,98926.78
2022-12-03T17:31:36.943Z,98929.47
2022-12-03T17:34:10.234Z,98927.81
2022-12-03T17:36:40.620Z,98920.84
2022-12-03T17:39:07.723Z,98926.00
2022-12-03T17:41:35.011Z,98925.09
2022-12-03T17:44:09.731Z,98923.44
2022-12-03T17:46:42.295Z,98922.50
2022-12-03T17:49:10.074Z,98924.19
2022-12-03T17:51:40.149Z,98925.06
2022-12-03T17:54:07.524Z,98924.25
2022-12-03T17:56:37.107Z,98926.88
2022-12-03T17:59:06.412Z,98923.38
2022-12-03T18:01:35.672Z,98925.09
2022-12-03T18:04:07.127Z,98916.50
2022-12-03T18:06:34.493Z,98924.25
2022-12-03T18:09:02.672Z,98924.22
2022-12-03T18:11:29.727Z,98916.28
2022-12-03T18:13:57.461Z,98915.44
2022-12-03T18:16:24.951Z,98911.16
2022-12-03T18:18:56.526Z,98915.56
2022-12-03T18:21:31.517Z,98911.22
2022-12-03T18:24:00.246Z,98910.34
2022-12-03T18:26:27.286Z,98916.41
2022-12-03T18:28:54.876Z,98912.16
2022-12-03T18:31:22.788Z,98917.31
2022-12-03T18:33:50.150Z,98915.59
2022-12-03T18:36:33.807Z,98918.19
2022-12-03T18:39:09.374Z,98919.00
2022-12-03T18:41:38.845Z,98919.91
2022-12-03T18:44:12.141Z,98917.34
2022-12-03T18:46:53.338Z,98920.75
2022-12-03T18:49:25.190Z,98911.19
2022-12-03T18:51:59.020Z,98906.84
2022-12-03T18:54:28.979Z,98906.84
2022-12-03T18:56:57.375Z,98904.25
2022-12-03T18:59:26.161Z,98902.53
2022-12-03T19:01:53.936Z,98908.59
2022-12-03T19:04:21.296Z,98909.44
2022-12-03T19:06:48.482Z,98911.16
2022-12-03T19:09:51.566Z,98905.09
2022-12-03T19:12:20.354Z,98903.34
2022-12-03T19:15:03.356Z,98905.13
2022-12-03T19:18:11.185Z,98910.34
2022-12-03T19:20:58.092Z,98903.31
2022-12-03T19:23:25.098Z,98917.22
2022-12-03T19:26:07.335Z,98914.59
2022-12-03T19:28:35.728Z,98909.34
2022-12-03T19:31:23.183Z,98911.03
2022-12-03T19:34:38.129Z,98909.25
2022-12-03T19:37:07.308Z,98904.81
2022-12-03T19:39:34.850Z,98905.66
2022-12-03T19:42:45.332Z,98905.59
2022-12-03T19:45:14.554Z,98904.72
2022-12-03T19:47:46.322Z,98892.53
2022-12-03T19:50:22.573Z,98895.13
2022-12-03T19:52:54.502Z,98898.63
2022-12-03T19:55:24.417Z,98897.72
2022-12-03T19:57:51.591Z,98897.66
2022-12-03T20:00:21.807Z,98898.56
2022-12-03T20:03:48.424Z,98899.50
2022-12-03T20:06:26.314Z,98895.13
2022-12-03T20:12:09.715Z,98885.63
2022-12-03T20:14:38.202Z,98890.88
2022-12-03T20:17:05.732Z,98887.44
2022-12-03T20:19:33.427Z,98873.47
2022-12-03T20:22:05.184Z,98881.28
2022-12-03T20:24:33.325Z,98876.88
2022-12-03T20:27:03.725Z,98877.75
2022-12-03T20:29:32.750Z,98884.63
2022-12-03T20:32:04.402Z,98877.69
2022-12-03T20:34:31.766Z,98875.97
2022-12-03T20:36:58.594Z,98875.91
2022-12-03T20:39:26.814Z,98875.00
2022-12-03T20:41:54.026Z,98882.00
2022-12-03T20:44:21.270Z,98888.97
2022-12-03T20:46:48.784Z,98884.59
2022-12-03T20:49:16.296Z,98885.50
2022-12-03T20:51:43.632Z,98882.91
2022-12-03T20:54:11.707Z,98876.81
2022-12-03T20:56:42.194Z,98876.81
2022-12-03T20:59:18.614Z,98868.16
2022-12-03T21:01:46.192Z,98870.78
2022-12-03T21:04:13.999Z,98865.59
2022-12-03T21:06:42.446Z,98867.34
2022-12-03T21:09:59.876Z,98876.81
2022-12-03T21:12:27.604Z,98870.72
2022-12-03T21:14:54.772Z,98874.22
2022-12-03T21:17:21.758Z,98876.00
2022-12-03T21:19:49.189Z,98880.28
2022-12-03T21:22:16.103Z,98879.50
2022-12-03T21:24:43.891Z,98878.59
2022-12-03T21:27:14.513Z,98869.00
2022-12-03T21:29:49.828Z,98870.72
2022-12-03T21:32:17.949Z,98864.63
2022-12-03T21:34:45.848Z,98873.34
2022-12-03T21:37:12.989Z,98875.97
2022-12-03T21:39:40.664Z,98873.31
2022-12-03T21:42:33.968Z,98876.81
2022-12-03T21:44:56.433Z,98866.44
2022-12-03T21:47:24.022Z,98864.69
2022-12-03T21:49:52.212Z,98869.00
2022-12-03T21:52:19.890Z,98875.94
2022-12-03T21:54:47.471Z,98865.53
2022-12-03T21:57:14.821Z,98870.72
2022-12-03T21:59:42.600Z,98869.81
2022-12-03T22:02:11.558Z,98872.41
2022-12-03T22:04:40.181Z,98869.78
2022-12-03T22:07:07.623Z,98872.31
2022-12-03T22:09:37.915Z,98867.06
2022-12-03T22:12:05.348Z,98858.44
2022-12-03T22:14:32.561Z,98870.59
2022-12-03T22:16:59.454Z,98866.25
2022-12-03T22:19:27.256Z,98857.53
2022-12-03T22:21:54.150Z,98861.84
2022-12-03T22:24:21.585Z,98860.13
2022-12-03T22:26:48.404Z,98854.84
2022-12-03T22:29:15.767Z,98854.09
2022-12-03T22:31:42.918Z,98853.13
2022-12-03T22:34:10.673Z,98853.09
2022-12-03T22:36:38.018Z,98849.59
2022-12-03T22:39:05.647Z,98850.41
2022-12-03T22:41:32.896Z,98846.00
2022-12-03T22:44:00.695Z,98842.53
2022-12-03T22:46:28.148Z,98841.72
2022-12-03T22:48:55.671Z,98842.56
2022-12-03T22:51:25.950Z,98836.44
2022-12-03T22:53:59.426Z,98838.16
2022-12-03T22:56:29.830Z,98830.31
2022-12-03T22:58:58.031Z,98825.97
2022-12-03T23:01:33.621Z,98832.91
2022-12-03T23:04:02.640Z,98825.09
2022-12-03T23:06:31.907Z,98829.41
2022-12-03T23:09:00.181Z,98827.69
2022-12-03T23:11:28.592Z,98822.47
2022-12-03T23:13:55.721Z,98821.59
2022-12-03T23:16:28.138Z,98815.44
2022-12-03T23:19:01.950Z,98809.34
2022-12-03T23:21:34.263Z,98812.00
2022-12-03T23:24:05.174Z,98811.09
2022-12-03T23:26:37.816Z,98807.56
2022-12-03T23:29:06.690Z,98806.63
2022-12-03T23:31:34.594Z,98814.41
2022-12-03T23:34:02.700Z,98807.47
2022-12-03T23:36:32.940Z,98802.13
2022-12-03T23:39:00.732Z,98802.25
2022-12-03T23:41:28.714Z,98805.66
2022-12-03T23:43:56.863Z,98803.88
2022-12-03T23:46:27.956Z,98799.44
2022-12-03T23:48:58.524Z,98804.63
2022-12-03T23:51:25.949Z,98801.09
2022-12-03T23:53:56.282Z,98796.66
2022-12-03T23:56:29.626Z,98814.13
2022-12-03T23:58:58.766Z,98814.06
